Time;durP1;ratioP1;P1;durP2;ratioP2;P2;SDS_P1;SDS_P2;PMS_P1;PMS_P2;Temp;Humidity;BMP_temperature;BMP_pressure;BME280_temperature;BME280_humidity;BME280_pressure;Samples;Min_cycle;Max_cycle;Signal;HPM_P1;HPM_P2
2023/09/24 00:01:49;;;;;;;8.07;2.60;;;12.60;82.70;;;;;;5054291;28;20430;-80
2023/09/24 00:04:15;;;;;;;4.90;2.70;;;12.60;82.70;;;;;;5057458;28;20177;-79
2023/09/24 00:06:40;;;;;;;4.20;2.43;;;12.50;82.70;;;;;;5048664;28;20201;-80
2023/09/24 00:09:07;;;;;;;5.93;2.77;;;12.50;82.70;;;;;;5049494;28;20180;-81
2023/09/24 00:11:32;;;;;;;4.83;2.37;;;12.50;82.80;;;;;;5056004;28;20684;-81
2023/09/24 00:13:58;;;;;;;7.53;2.40;;;12.40;82.70;;;;;;5068059;28;20419;-79
2023/09/24 00:16:24;;;;;;;5.20;2.40;;;12.30;82.80;;;;;;5050647;28;20216;-79
2023/09/24 00:18:49;;;;;;;4.20;2.33;;;12.20;83.00;;;;;;5045605;28;20173;-78
2023/09/24 00:21:16;;;;;;;4.07;2.70;;;12.20;83.10;;;;;;5056639;28;20204;-78
2023/09/24 00:23:41;;;;;;;5.70;2.23;;;12.20;83.10;;;;;;5059851;28;20197;-78
2023/09/24 00:26:07;;;;;;;4.83;2.53;;;12.10;83.30;;;;;;5047983;28;20841;-77
2023/09/24 00:28:32;;;;;;;3.20;2.30;;;12.20;83.30;;;;;;5049895;28;20192;-78
2023/09/24 00:31:02;;;;;;;4.07;2.60;;;12.20;83.10;;;;;;5057193;28;20176;-79
2023/09/24 00:33:29;;;;;;;5.53;3.17;;;12.20;83.30;;;;;;5055473;28;20181;-77
2023/09/24 00:35:59;;;;;;;3.20;2.67;;;12.20;83.40;;;;;;5051148;28;20466;-79
2023/09/24 00:38:24;;;;;;;6.33;2.57;;;12.20;83.40;;;;;;5045941;28;20467;-78
2023/09/24 00:40:50;;;;;;;4.50;2.90;;;12.30;83.70;;;;;;5058522;28;20459;-79
2023/09/24 00:43:28;;;;;;;5.40;2.80;;;12.20;83.40;;;;;;5051830;28;20188;-79
2023/09/24 00:45:59;;;;;;;5.87;2.90;;;12.10;83.70;;;;;;5050856;28;20208;-77
2023/09/24 00:48:28;;;;;;;6.13;2.50;;;12.20;83.80;;;;;;5049819;28;20438;-77
2023/09/24 00:51:04;;;;;;;13.57;3.47;;;12.10;83.70;;;;;;5050850;28;21016;-77
2023/09/24 00:53:31;;;;;;;5.43;2.90;;;12.00;83.70;;;;;;5052227;28;20415;-77
2023/09/24 00:55:57;;;;;;;6.07;2.50;;;11.90;84.00;;;;;;5062295;28;20474;-78
2023/09/24 00:58:25;;;;;;;4.67;2.77;;;11.80;84.10;;;;;;5058539;28;20463;-79
2023/09/24 01:00:55;;;;;;;3.50;2.60;;;11.80;84.30;;;;;;5052969;28;20506;-80
2023/09/24 01:03:22;;;;;;;7.10;2.80;;;11.80;84.30;;;;;;5053975;28;20482;-79
2023/09/24 01:05:53;;;;;;;4.60;2.47;;;12.00;84.40;;;;;;5043941;28;20570;-78
2023/09/24 01:08:23;;;;;;;4.30;2.87;;;12.00;84.30;;;;;;5048430;28;20959;-78
2023/09/24 01:10:50;;;;;;;5.40;2.77;;;12.00;84.30;;;;;;5051487;28;20448;-81
2023/09/24 01:13:20;;;;;;;5.53;2.47;;;12.00;84.30;;;;;;5054028;28;20419;-78
2023/09/24 01:15:55;;;;;;;4.43;2.80;;;11.90;84.10;;;;;;5056221;28;20468;-80
2023/09/24 01:18:22;;;;;;;4.20;2.80;;;11.90;84.30;;;;;;5052124;28;20473;-79
2023/09/24 01:20:48;;;;;;;5.00;2.37;;;11.80;84.10;;;;;;5060254;28;20449;-79
2023/09/24 01:23:15;;;;;;;5.67;3.30;;;11.70;84.40;;;;;;5067800;28;20466;-80
2023/09/24 01:25:43;;;;;;;6.80;2.70;;;11.80;84.60;;;;;;5062048;28;20452;-78
2023/09/24 01:28:10;;;;;;;4.40;2.70;;;11.90;84.60;;;;;;5059291;28;20418;-78
2023/09/24 01:30:36;;;;;;;4.47;2.20;;;11.90;84.30;;;;;;5053381;28;20427;-79
2023/09/24 01:33:02;;;;;;;4.10;2.73;;;11.90;84.40;;;;;;5056672;28;20426;-78
2023/09/24 01:35:28;;;;;;;3.67;2.43;;;11.90;84.40;;;;;;5051481;28;20459;-78
2023/09/24 01:37:59;;;;;;;4.50;3.00;;;11.90;84.40;;;;;;5055282;28;20208;-78
2023/09/24 01:40:27;;;;;;;6.40;3.40;;;11.80;84.40;;;;;;5049016;28;20428;-79
2023/09/24 01:42:57;;;;;;;2.80;2.00;;;11.60;84.60;;;;;;5059093;28;20411;-79
2023/09/24 01:45:24;;;;;;;5.30;2.70;;;11.60;84.90;;;;;;5050813;28;20510;-79
2023/09/24 01:47:50;;;;;;;3.87;2.63;;;11.60;85.20;;;;;;5054785;28;20422;-80
2023/09/24 01:50:16;;;;;;;4.63;2.80;;;11.70;85.00;;;;;;5054190;28;20415;-79
2023/09/24 01:52:42;;;;;;;6.87;2.40;;;11.60;84.70;;;;;;5056054;28;20434;-80
2023/09/24 01:55:08;;;;;;;5.57;1.90;;;11.60;84.70;;;;;;5050709;28;20526;-78
2023/09/24 01:57:34;;;;;;;4.57;2.23;;;11.60;84.90;;;;;;5058333;28;20462;-78
2023/09/24 02:00:11;;;;;;;5.63;2.23;;;11.60;84.70;;;;;;5052511;28;20291;-79
2023/09/24 02:02:38;;;;;;;4.77;2.53;;;11.60;84.70;;;;;;5054247;28;20177;-78
2023/09/24 02:05:10;;;;;;;4.70;2.40;;;11.60;84.60;;;;;;5054913;28;20458;-79
2023/09/24 02:07:38;;;;;;;3.67;2.37;;;11.60;84.60;;;;;;5053599;28;20426;-79
2023/09/24 02:10:05;;;;;;;2.90;2.00;;;11.60;84.60;;;;;;5052797;28;20431;-78
2023/09/24 02:12:37;;;;;;;4.00;2.40;;;11.70;84.40;;;;;;5056383;28;20667;-79
2023/09/24 02:15:09;;;;;;;5.87;2.87;;;11.70;84.40;;;;;;5062529;28;20461;-80
2023/09/24 02:17:35;;;;;;;8.23;3.30;;;11.60;84.40;;;;;;5054987;28;20460;-79
2023/09/24 02:20:18;;;;;;;5.23;2.87;;;11.60;84.60;;;;;;5064805;28;20427;-80
2023/09/24 02:22:48;;;;;;;5.33;2.80;;;11.60;84.40;;;;;;5064248;28;20457;-82
2023/09/24 02:25:14;;;;;;;5.90;2.70;;;11.60;84.40;;;;;;5054016;28;20497;-79
2023/09/24 02:27:41;;;;;;;5.10;2.80;;;11.60;84.30;;;;;;5047969;28;20454;-79
2023/09/24 02:30:13;;;;;;;3.80;2.80;;;11.50;84.10;;;;;;5046941;28;20419;-78
2023/09/24 02:32:40;;;;;;;7.27;2.90;;;11.40;84.30;;;;;;5054144;28;20832;-78
2023/09/24 02:35:08;;;;;;;6.90;2.57;;;11.30;84.60;;;;;;5044393;28;20493;-78
2023/09/24 02:37:34;;;;;;;8.43;2.63;;;11.20;84.90;;;;;;5049000;28;20493;-78
2023/09/24 02:40:03;;;;;;;6.67;2.90;;;11.20;85.20;;;;;;5052405;28;20943;-79
2023/09/24 02:42:29;;;;;;;11.53;2.93;;;11.20;85.30;;;;;;5061921;28;20419;-78
2023/09/24 02:44:56;;;;;;;4.60;3.03;;;11.20;85.50;;;;;;5063781;28;20415;-80
2023/09/24 02:47:22;;;;;;;4.13;2.57;;;11.20;85.60;;;;;;5058284;28;20180;-80
2023/09/24 02:49:48;;;;;;;5.20;2.53;;;11.20;85.50;;;;;;5057428;28;20431;-79
2023/09/24 02:52:14;;;;;;;3.50;2.13;;;11.20;85.60;;;;;;5056180;28;20222;-79
2023/09/24 02:54:40;;;;;;;3.03;1.90;;;11.10;85.60;;;;;;5049080;28;20427;-79
2023/09/24 02:57:05;;;;;;;4.03;2.47;;;11.00;85.60;;;;;;5051307;28;20470;-78
2023/09/24 02:59:32;;;;;;;6.30;2.70;;;11.10;85.70;;;;;;5054724;28;20199;-78
2023/09/24 03:01:57;;;;;;;4.87;2.70;;;11.10;85.60;;;;;;5055332;28;20227;-77
2023/09/24 03:04:23;;;;;;;4.57;2.33;;;11.10;85.60;;;;;;5054819;28;20439;-78
2023/09/24 03:06:48;;;;;;;4.37;2.27;;;11.10;85.60;;;;;;5047285;28;20197;-78
2023/09/24 03:09:15;;;;;;;4.90;3.00;;;11.10;85.60;;;;;;5055734;28;20193;-79
2023/09/24 03:11:41;;;;;;;3.97;2.60;;;11.20;85.60;;;;;;5055672;28;20189;-79
2023/09/24 03:14:07;;;;;;;4.77;1.80;;;11.20;85.30;;;;;;5053601;28;20419;-79
2023/09/24 03:16:32;;;;;;;5.50;2.40;;;11.20;85.20;;;;;;5051297;28;20253;-79
2023/09/24 03:19:00;;;;;;;4.77;2.57;;;11.20;85.20;;;;;;5045827;28;20216;-80
2023/09/24 03:21:25;;;;;;;9.43;2.87;;;11.10;85.00;;;;;;5057368;28;20222;-79
2023/09/24 03:23:52;;;;;;;4.97;2.70;;;11.10;85.20;;;;;;5057802;28;20435;-78
2023/09/24 03:26:19;;;;;;;4.30;2.60;;;11.00;84.30;;;;;;5060643;28;20196;-80
2023/09/24 03:28:45;;;;;;;6.00;3.10;;;10.80;84.60;;;;;;5059373;28;20419;-80
2023/09/24 03:31:14;;;;;;;5.37;2.63;;;10.80;85.20;;;;;;5056192;28;20779;-79
2023/09/24 03:33:40;;;;;;;8.23;3.50;;;10.70;85.30;;;;;;5053114;28;20461;-78
2023/09/24 03:36:10;;;;;;;6.40;2.90;;;10.50;85.60;;;;;;5053515;28;20553;-78
2023/09/24 03:38:36;;;;;;;4.33;2.43;;;10.60;86.20;;;;;;5049604;28;20335;-79
2023/09/24 03:41:03;;;;;;;3.80;2.40;;;10.50;86.20;;;;;;5057089;28;20426;-79
2023/09/24 03:43:29;;;;;;;4.97;3.00;;;10.50;86.50;;;;;;5062578;28;20431;-80
2023/09/24 03:45:55;;;;;;;4.27;2.60;;;10.50;86.80;;;;;;5062212;28;20481;-80
2023/09/24 03:48:22;;;;;;;4.60;2.70;;;10.40;86.80;;;;;;5054957;28;20415;-81
2023/09/24 03:50:48;;;;;;;7.00;3.30;;;10.50;87.00;;;;;;5063543;28;20184;-78
2023/09/24 03:53:18;;;;;;;4.27;2.43;;;10.60;86.90;;;;;;5057041;28;20474;-79
2023/09/24 03:55:45;;;;;;;4.83;2.70;;;10.60;86.50;;;;;;5057335;28;20459;-82
2023/09/24 03:58:11;;;;;;;5.33;2.77;;;10.60;86.30;;;;;;5055147;28;20545;-80
2023/09/24 04:00:37;;;;;;;5.57;2.87;;;10.50;86.50;;;;;;5056934;28;20449;-81
2023/09/24 04:03:03;;;;;;;3.70;2.80;;;10.60;86.80;;;;;;5054896;28;20415;-81
2023/09/24 04:05:30;;;;;;;5.53;3.20;;;10.60;86.60;;;;;;5053773;28;20197;-80
2023/09/24 04:07:55;;;;;;;3.63;2.43;;;10.60;86.60;;;;;;5057697;28;20181;-79
2023/09/24 04:10:23;;;;;;;5.10;2.63;;;10.60;86.50;;;;;;5060821;28;20433;-81
2023/09/24 04:12:52;;;;;;;8.67;3.00;;;10.60;86.00;;;;;;5058686;28;20269;-80
2023/09/24 04:15:23;;;;;;;3.90;2.50;;;10.50;86.00;;;;;;5057711;28;20459;-78
2023/09/24 04:17:49;;;;;;;4.93;2.93;;;10.40;86.00;;;;;;5057245;28;20657;-82
2023/09/24 04:20:17;;;;;;;5.13;3.20;;;10.30;86.20;;;;;;5053747;28;20965;-80
2023/09/24 04:22:44;;;;;;;8.10;3.53;;;10.20;86.50;;;;;;5053604;28;20420;-80
2023/09/24 04:25:10;;;;;;;4.20;3.17;;;10.10;86.80;;;;;;5064443;28;20485;-80
2023/09/24 04:27:35;;;;;;;3.90;2.77;;;10.20;86.90;;;;;;5065448;28;20434;-79
2023/09/24 04:30:05;;;;;;;5.40;3.47;;;10.20;87.00;;;;;;5067005;28;20431;-82
2023/09/24 04:32:30;;;;;;;5.00;2.90;;;10.20;86.90;;;;;;5065786;28;20185;-80
2023/09/24 04:34:56;;;;;;;5.20;2.70;;;10.20;86.90;;;;;;5058191;28;20446;-81
2023/09/24 04:37:22;;;;;;;5.70;3.13;;;10.10;87.10;;;;;;5037229;23;20257;-73
2023/09/24 04:39:48;;;;;;;6.80;3.40;;;10.20;87.40;;;;;;5010228;28;20193;-74
2023/09/24 04:42:14;;;;;;;4.47;2.80;;;10.20;87.60;;;;;;5011390;28;20436;-73
2023/09/24 04:44:39;;;;;;;5.90;3.33;;;10.20;87.60;;;;;;5007736;28;20182;-75
2023/09/24 04:47:05;;;;;;;7.33;3.30;;;10.30;87.60;;;;;;4983302;28;20866;-74
2023/09/24 04:49:31;;;;;;;4.30;2.90;;;10.30;87.40;;;;;;4988767;28;20301;-74
2023/09/24 04:51:57;;;;;;;5.97;3.40;;;10.30;87.40;;;;;;4978738;28;20190;-72
2023/09/24 04:54:22;;;;;;;4.70;3.30;;;10.30;87.00;;;;;;4988718;28;20186;-73
2023/09/24 04:56:49;;;;;;;4.97;3.10;;;10.20;87.00;;;;;;4980035;28;20289;-72
2023/09/24 04:59:14;;;;;;;7.90;3.10;;;10.30;87.30;;;;;;4984591;28;20261;-73
2023/09/24 05:01:40;;;;;;;4.33;2.47;;;10.30;87.30;;;;;;4985515;28;20556;-73
2023/09/24 05:04:06;;;;;;;5.57;3.00;;;10.20;87.00;;;;;;4983753;28;20189;-74
2023/09/24 05:06:32;;;;;;;5.93;3.27;;;10.20;87.00;;;;;;4979975;28;20644;-73
2023/09/24 05:08:58;;;;;;;6.50;3.70;;;10.30;87.40;;;;;;4990105;28;20190;-73
2023/09/24 05:11:23;;;;;;;5.53;3.20;;;10.30;87.30;;;;;;4988048;28;20468;-74
2023/09/24 05:13:49;;;;;;;4.50;2.90;;;10.30;87.30;;;;;;4989089;28;20312;-72
2023/09/24 05:16:15;;;;;;;6.07;3.50;;;10.30;87.00;;;;;;4990544;28;20206;-73
2023/09/24 05:18:41;;;;;;;6.77;3.30;;;10.30;86.90;;;;;;4988155;28;20223;-74
2023/09/24 05:21:15;;;;;;;6.40;3.50;;;10.20;86.80;;;;;;4989066;28;20475;-74
2023/09/24 05:23:40;;;;;;;9.47;3.83;;;10.20;86.80;;;;;;4990506;28;20425;-72
2023/09/24 05:26:11;;;;;;;5.13;2.90;;;10.20;86.90;;;;;;4985812;28;20454;-72
2023/09/24 05:28:36;;;;;;;6.97;3.27;;;10.20;87.00;;;;;;4984234;28;20238;-73
2023/09/24 05:31:02;;;;;;;9.47;3.30;;;10.10;87.00;;;;;;4990448;28;20430;-72
2023/09/24 05:33:28;;;;;;;6.10;4.20;;;10.10;87.30;;;;;;4991279;28;20185;-72
2023/09/24 05:35:53;;;;;;;6.67;3.20;;;10.10;87.40;;;;;;4981866;28;20762;-74
2023/09/24 05:38:19;;;;;;;6.50;3.57;;;10.10;87.40;;;;;;4981639;28;20214;-73
2023/09/24 05:40:45;;;;;;;8.27;3.43;;;10.10;87.70;;;;;;4992448;28;20189;-74
2023/09/24 05:43:11;;;;;;;5.30;2.73;;;10.20;87.60;;;;;;4986850;28;20923;-73
2023/09/24 05:45:47;;;;;;;5.37;3.20;;;10.20;87.00;;;;;;4985488;28;20206;-73
2023/09/24 05:48:16;;;;;;;6.53;3.67;;;10.20;86.60;;;;;;4987026;28;20186;-73
2023/09/24 05:50:43;;;;;;;6.20;4.10;;;10.20;86.50;;;;;;4987539;28;20421;-74
2023/09/24 05:53:12;;;;;;;4.00;3.30;;;10.20;86.30;;;;;;4993839;28;20453;-73
2023/09/24 05:55:38;;;;;;;6.87;3.70;;;10.10;85.90;;;;;;4990902;28;20473;-77
2023/09/24 05:58:05;;;;;;;5.63;3.10;;;10.00;85.90;;;;;;4990567;28;20464;-72
2023/09/24 06:00:31;;;;;;;6.93;4.23;;;9.90;86.20;;;;;;4987825;28;20417;-73
2023/09/24 06:02:58;;;;;;;7.43;3.73;;;10.00;86.50;;;;;;4984066;28;20426;-73
2023/09/24 06:05:24;;;;;;;10.90;4.37;;;10.00;86.60;;;;;;4982173;28;20466;-73
2023/09/24 06:07:49;;;;;;;5.50;3.70;;;10.00;86.80;;;;;;4985776;28;20503;-73
2023/09/24 06:10:15;;;;;;;4.93;3.50;;;10.00;86.80;;;;;;4986794;28;20795;-72
2023/09/24 06:12:40;;;;;;;6.50;3.53;;;10.00;86.90;;;;;;4985114;28;20182;-73
2023/09/24 06:15:08;;;;;;;6.27;4.33;;;10.10;86.90;;;;;;4982991;28;20246;-72
2023/09/24 06:17:34;;;;;;;7.70;3.70;;;10.10;87.00;;;;;;4982931;28;20571;-74
2023/09/24 06:20:00;;;;;;;5.10;3.70;;;10.10;87.10;;;;;;4992480;28;20488;-73
2023/09/24 06:22:27;;;;;;;7.03;3.97;;;10.20;87.00;;;;;;4988031;28;20426;-74
2023/09/24 06:24:53;;;;;;;5.60;3.87;;;10.20;86.30;;;;;;4980619;28;20608;-72
2023/09/24 06:27:21;;;;;;;5.57;3.47;;;10.20;85.90;;;;;;4986702;28;20574;-74
2023/09/24 06:29:47;;;;;;;5.70;3.20;;;10.30;85.70;;;;;;4989931;28;20421;-77
2023/09/24 06:32:13;;;;;;;6.67;3.57;;;10.30;85.50;;;;;;4989825;28;20504;-71
2023/09/24 06:34:39;;;;;;;8.37;4.10;;;10.30;85.50;;;;;;4989710;28;20535;-75
2023/09/24 06:37:04;;;;;;;6.40;3.63;;;10.40;85.30;;;;;;4984666;28;20246;-75
2023/09/24 06:39:31;;;;;;;6.30;3.90;;;10.40;85.30;;;;;;4993435;28;20560;-73
2023/09/24 06:41:56;;;;;;;5.00;3.20;;;10.50;85.20;;;;;;4993155;28;20190;-75
2023/09/24 06:44:23;;;;;;;6.27;4.20;;;10.50;85.20;;;;;;4988880;28;20877;-74
2023/09/24 06:46:49;;;;;;;4.27;3.50;;;10.50;85.30;;;;;;4984124;28;20210;-77
2023/09/24 06:49:15;;;;;;;7.37;3.83;;;10.50;85.50;;;;;;4992733;28;20417;-74
2023/09/24 06:51:40;;;;;;;5.93;3.87;;;10.60;85.60;;;;;;4993830;28;20464;-74
2023/09/24 06:54:06;;;;;;;8.70;3.80;;;10.50;85.60;;;;;;4988687;28;20186;-74
2023/09/24 06:56:31;;;;;;;5.67;3.40;;;10.60;85.90;;;;;;4989592;28;20362;-73
2023/09/24 06:58:57;;;;;;;7.23;3.93;;;10.70;85.70;;;;;;4992924;28;20215;-72
2023/09/24 07:01:23;;;;;;;6.33;4.33;;;10.80;85.60;;;;;;4988508;28;20718;-73
2023/09/24 07:03:48;;;;;;;4.43;3.13;;;11.00;85.50;;;;;;4988019;28;20655;-72
2023/09/24 07:06:15;;;;;;;5.60;3.90;;;11.00;85.20;;;;;;4987958;28;20286;-74
2023/09/24 07:08:40;;;;;;;5.33;3.50;;;11.10;85.00;;;;;;4986271;28;20195;-76
2023/09/24 07:11:33;;;;;;;11.80;5.57;;;11.20;85.00;;;;;;4986758;28;20437;-73
2023/09/24 07:13:58;;;;;;;6.47;4.80;;;11.30;84.90;;;;;;4988328;28;20183;-74
2023/09/24 07:16:26;;;;;;;6.53;3.63;;;11.30;84.60;;;;;;4989975;28;20508;-73
2023/09/24 07:18:56;;;;;;;6.63;4.07;;;11.30;84.60;;;;;;4998583;28;20242;-74
2023/09/24 07:21:25;;;;;;;6.77;4.47;;;11.40;84.60;;;;;;4985452;28;20422;-71
2023/09/24 07:23:52;;;;;;;6.57;4.60;;;11.40;84.70;;;;;;4990963;28;20440;-72
2023/09/24 07:26:19;;;;;;;9.00;4.50;;;11.40;84.90;;;;;;4986293;28;20472;-71
2023/09/24 07:28:45;;;;;;;6.97;4.60;;;11.50;84.90;;;;;;4995636;28;20430;-70
2023/09/24 07:31:23;;;;;;;8.90;4.23;;;11.60;85.00;;;;;;4994157;28;20429;-72
2023/09/24 07:33:50;;;;;;;10.83;5.30;;;11.70;84.90;;;;;;4987522;28;20425;-71
2023/09/24 07:36:16;;;;;;;10.67;5.00;;;11.80;84.70;;;;;;4983921;28;20548;-71
2023/09/24 07:38:42;;;;;;;6.87;4.50;;;11.80;84.60;;;;;;4994117;28;20465;-70
2023/09/24 07:41:08;;;;;;;9.53;4.47;;;11.90;84.60;;;;;;4993085;28;20181;-71
2023/09/24 07:43:38;;;;;;;8.10;5.00;;;12.00;84.60;;;;;;4988745;28;20445;-70
2023/09/24 07:46:07;;;;;;;8.57;5.27;;;12.10;84.60;;;;;;4976982;28;20572;-72
2023/09/24 07:48:32;;;;;;;6.93;4.43;;;12.20;84.30;;;;;;4982103;28;20431;-71
2023/09/24 07:50:59;;;;;;;13.17;5.03;;;12.30;84.00;;;;;;4988056;28;20421;-70
2023/09/24 07:53:25;;;;;;;5.93;4.37;;;12.40;83.70;;;;;;4991586;28;20444;-70
2023/09/24 07:55:55;;;;;;;7.23;4.50;;;12.50;83.60;;;;;;4989336;28;20973;-70
2023/09/24 07:58:25;;;;;;;7.50;4.10;;;12.60;83.10;;;;;;4990903;28;20218;-69
2023/09/24 08:00:51;;;;;;;6.47;4.20;;;12.70;82.80;;;;;;4988125;28;20417;-70
2023/09/24 08:03:17;;;;;;;5.30;3.73;;;12.70;82.80;;;;;;4990842;28;20453;-70
2023/09/24 08:05:43;;;;;;;6.03;4.30;;;12.80;82.80;;;;;;4988518;28;20481;-72
2023/09/24 08:08:08;;;;;;;7.93;5.10;;;12.90;82.70;;;;;;4986414;28;20494;-71
2023/09/24 08:10:34;;;;;;;9.30;4.30;;;13.00;82.20;;;;;;4991974;28;20206;-70
2023/09/24 08:13:02;;;;;;;6.47;4.17;;;13.00;81.90;;;;;;4984914;28;20191;-72
2023/09/24 08:15:28;;;;;;;7.83;4.83;;;13.10;81.80;;;;;;4981158;28;20515;-72
2023/09/24 08:17:53;;;;;;;7.00;4.07;;;13.10;81.80;;;;;;4984427;28;20985;-71
2023/09/24 08:20:19;;;;;;;9.13;4.50;;;13.20;81.70;;;;;;4990685;28;20197;-70
2023/09/24 08:22:45;;;;;;;6.57;3.93;;;13.30;81.10;;;;;;4993498;28;20193;-71
2023/09/24 08:25:11;;;;;;;6.23;4.13;;;13.40;80.80;;;;;;4987056;28;20358;-70
2023/09/24 08:27:37;;;;;;;6.13;4.33;;;13.50;80.60;;;;;;4990417;28;20537;-71
2023/09/24 08:30:03;;;;;;;6.60;4.53;;;13.70;80.30;;;;;;4989008;28;20222;-71
2023/09/24 08:32:29;;;;;;;9.00;4.27;;;13.60;80.00;;;;;;4986637;28;20192;-71
2023/09/24 08:34:55;;;;;;;8.60;4.20;;;13.70;79.70;;;;;;4984909;28;20430;-71
2023/09/24 08:37:20;;;;;;;4.90;3.50;;;13.70;79.70;;;;;;4984001;28;20227;-74
2023/09/24 08:39:46;;;;;;;5.97;3.50;;;13.80;79.30;;;;;;4990937;28;20430;-71
2023/09/24 08:42:15;;;;;;;6.40;4.10;;;13.90;79.00;;;;;;4985790;28;20584;-72
2023/09/24 08:44:41;;;;;;;5.50;3.93;;;14.10;78.70;;;;;;4987682;28;20225;-68
2023/09/24 08:47:08;;;;;;;5.83;4.00;;;14.20;78.10;;;;;;4983308;28;20473;-73
2023/09/24 08:49:35;;;;;;;7.20;3.60;;;14.30;77.70;;;;;;4990919;28;20528;-71
2023/09/24 08:52:03;;;;;;;5.53;3.30;;;14.40;77.30;;;;;;4989562;28;20561;-72
2023/09/24 08:54:30;;;;;;;5.50;3.50;;;14.50;77.10;;;;;;4985640;28;20529;-70
2023/09/24 08:56:56;;;;;;;4.97;3.50;;;14.60;76.70;;;;;;4987730;28;20682;-71
2023/09/24 08:59:22;;;;;;;5.70;3.67;;;14.80;75.70;;;;;;4987699;28;20434;-70
2023/09/24 09:01:54;;;;;;;4.50;3.10;;;14.90;74.80;;;;;;4985570;28;20206;-70
2023/09/24 09:04:20;;;;;;;8.33;3.20;;;15.00;73.90;;;;;;4994060;28;20218;-68
2023/09/24 09:06:45;;;;;;;6.20;3.07;;;15.10;73.50;;;;;;4984009;28;20465;-72
2023/09/24 09:09:23;;;;;;;5.27;3.20;;;15.10;72.70;;;;;;4990916;28;20645;-72
2023/09/24 09:11:48;;;;;;;5.53;2.63;;;15.20;71.80;;;;;;4987468;28;20186;-71
2023/09/24 09:14:14;;;;;;;4.20;2.77;;;15.30;71.10;;;;;;4983311;28;20441;-71
2023/09/24 09:16:55;;;;;;;5.33;2.70;;;15.30;71.10;;;;;;4980872;28;20210;-73
2023/09/24 09:19:21;;;;;;;7.13;2.80;;;15.50;70.80;;;;;;4980393;28;20929;-72
2023/09/24 09:21:47;;;;;;;5.87;2.87;;;15.50;70.70;;;;;;4988019;28;20436;-71
2023/09/24 09:24:26;;;;;;;6.03;2.80;;;15.60;70.50;;;;;;4984313;28;20429;-72
2023/09/24 09:26:55;;;;;;;4.83;2.37;;;15.70;70.20;;;;;;4980413;28;20216;-71
2023/09/24 09:29:26;;;;;;;9.33;3.77;;;15.80;68.60;;;;;;4984720;28;20433;-72
2023/09/24 09:31:52;;;;;;;3.90;2.57;;;15.90;68.30;;;;;;4985227;28;20421;-71
2023/09/24 09:34:18;;;;;;;4.83;2.30;;;16.00;68.00;;;;;;4981965;28;20569;-71
2023/09/24 09:36:44;;;;;;;3.50;2.40;;;16.00;67.00;;;;;;4985296;28;20548;-71
2023/09/24 09:39:10;;;;;;;4.37;2.37;;;16.00;66.70;;;;;;4992770;28;20549;-71
2023/09/24 09:41:38;;;;;;;4.93;2.63;;;16.10;66.90;;;;;;4981260;28;20180;-72
2023/09/24 09:44:07;;;;;;;4.30;2.33;;;16.20;66.70;;;;;;4988565;28;20195;-72
2023/09/24 09:46:45;;;;;;;5.20;2.20;;;16.20;66.10;;;;;;4985517;28;20453;-71
2023/09/24 09:49:13;;;;;;;4.47;2.90;;;16.30;66.30;;;;;;5001153;28;20416;-71
2023/09/24 09:51:47;;;;;;;11.60;3.60;;;16.30;66.40;;;;;;5002247;28;20441;-71
2023/09/24 09:54:15;;;;;;;4.30;2.40;;;16.40;66.00;;;;;;4991950;28;20432;-71
2023/09/24 09:56:41;;;;;;;6.13;2.37;;;16.40;65.70;;;;;;4978427;28;20488;-72
2023/09/24 09:59:08;;;;;;;5.27;2.77;;;16.50;65.60;;;;;;4994623;28;20536;-72
2023/09/24 10:01:34;;;;;;;4.07;2.50;;;16.50;65.10;;;;;;4994246;28;20910;-72
2023/09/24 10:04:03;;;;;;;4.50;2.63;;;16.50;65.10;;;;;;4993232;28;20433;-70
2023/09/24 10:06:35;;;;;;;3.70;2.50;;;16.50;65.30;;;;;;4990932;28;20487;-70
2023/09/24 10:09:01;;;;;;;6.30;2.60;;;16.60;65.40;;;;;;4988665;28;20555;-71
2023/09/24 10:11:30;;;;;;;4.70;2.50;;;16.60;65.40;;;;;;4998094;28;20435;-71
2023/09/24 10:13:56;;;;;;;5.47;2.80;;;16.60;65.10;;;;;;4985805;28;20437;-72
2023/09/24 10:16:28;;;;;;;9.50;3.00;;;16.70;65.10;;;;;;4985871;28;20456;-73
2023/09/24 10:18:54;;;;;;;4.37;2.37;;;16.70;64.70;;;;;;4995010;28;20469;-71
2023/09/24 10:21:31;;;;;;;4.33;2.33;;;16.80;64.80;;;;;;4992609;28;20907;-72
2023/09/24 10:23:59;;;;;;;3.37;2.10;;;16.80;64.40;;;;;;4992540;28;20449;-71
2023/09/24 10:27:03;;;;;;;5.77;2.40;;;16.70;63.80;;;;;;4983215;28;20464;-70
2023/09/24 10:29:44;;;;;;;3.60;2.10;;;16.80;64.40;;;;;;4933961;29;20433;-71
2023/09/24 10:32:17;;;;;;;8.50;2.73;;;16.90;65.00;;;;;;4943682;29;20435;-72
2023/09/24 10:34:53;;;;;;;8.30;3.07;;;17.30;65.00;;;;;;4930613;29;20444;-72
2023/09/24 10:37:20;;;;;;;4.60;2.50;;;17.80;63.20;;;;;;4931465;29;20522;-72
2023/09/24 10:42:28;;;;;;;5.63;2.70;;;18.70;60.90;;;;;;4929475;29;20515;-71
2023/09/24 10:45:19;;;;;;;7.20;3.03;;;19.10;59.90;;;;;;4928422;29;20500;-72
2023/09/24 10:47:46;;;;;;;5.33;2.20;;;19.70;59.30;;;;;;4929218;29;20432;-73
2023/09/24 10:50:15;;;;;;;4.00;1.83;;;20.10;57.40;;;;;;4932903;29;20427;-72
2023/09/24 10:52:53;;;;;;;2.50;2.03;;;20.60;54.50;;;;;;4933725;29;20435;-73
2023/09/24 10:55:20;;;;;;;5.83;2.43;;;21.00;52.80;;;;;;4930238;29;20526;-72
2023/09/24 10:57:50;;;;;;;3.17;1.67;;;20.60;53.60;;;;;;4932418;29;20477;-73
2023/09/24 11:00:17;;;;;;;4.20;2.40;;;20.30;55.00;;;;;;4928921;29;20436;-73
2023/09/24 11:02:43;;;;;;;6.90;2.70;;;20.60;55.30;;;;;;4932822;29;20447;-72
2023/09/24 11:05:10;;;;;;;5.43;2.43;;;20.90;54.00;;;;;;4941661;28;20509;-72
2023/09/24 11:07:36;;;;;;;5.93;2.60;;;20.70;54.00;;;;;;4991177;28;20432;-72
2023/09/24 11:10:02;;;;;;;8.60;2.23;;;20.30;54.20;;;;;;4986500;28;20431;-72
2023/09/24 11:12:27;;;;;;;4.10;1.70;;;19.90;56.00;;;;;;4989251;28;20443;-71
2023/09/24 11:14:57;;;;;;;4.43;1.97;;;19.90;56.40;;;;;;4989658;28;20450;-71
2023/09/24 11:17:24;;;;;;;3.50;2.03;;;20.10;56.40;;;;;;4986140;28;20220;-70
2023/09/24 11:19:50;;;;;;;4.00;2.30;;;20.20;55.30;;;;;;4992257;28;20447;-73
2023/09/24 11:22:26;;;;;;;4.83;2.37;;;20.30;55.20;;;;;;4990846;28;20427;-72
2023/09/24 11:25:12;;;;;;;5.17;2.27;;;20.40;53.80;;;;;;4983940;28;20439;-72
2023/09/24 11:27:49;;;;;;;3.10;1.83;;;20.20;53.30;;;;;;4986639;28;20434;-71
2023/09/24 11:30:17;;;;;;;4.40;1.80;;;20.50;53.80;;;;;;4994114;28;20418;-73
2023/09/24 11:32:44;;;;;;;7.93;2.33;;;20.80;52.10;;;;;;4995042;28;20420;-73
2023/09/24 11:35:18;;;;;;;2.97;1.90;;;21.20;50.50;;;;;;4984605;28;20474;-73
2023/09/24 11:37:46;;;;;;;4.60;1.43;;;21.30;49.50;;;;;;4989549;28;20570;-73
2023/09/24 11:40:34;;;;;;;3.57;1.90;;;21.20;48.70;;;;;;4989930;28;20462;-72
2023/09/24 11:43:02;;;;;;;2.23;1.30;;;21.30;48.60;;;;;;4987663;28;20797;-71
2023/09/24 11:45:50;;;;;;;3.40;2.00;;;21.40;48.10;;;;;;4979549;28;20580;-72
2023/09/24 11:48:27;;;;;;;3.63;1.70;;;21.60;48.70;;;;;;4989192;28;20424;-73
2023/09/24 11:51:02;;;;;;;2.93;1.70;;;21.80;48.30;;;;;;4985818;28;20938;-74
2023/09/24 11:53:28;;;;;;;2.73;1.57;;;22.10;48.20;;;;;;4986905;28;20426;-72
2023/09/24 11:55:58;;;;;;;4.40;1.90;;;22.50;46.60;;;;;;4987837;28;20463;-73
2023/09/24 11:58:26;;;;;;;3.83;1.93;;;22.70;45.90;;;;;;4988467;28;20259;-72
2023/09/24 12:00:53;;;;;;;3.00;1.80;;;23.00;45.10;;;;;;4989916;28;20420;-72
2023/09/24 12:03:22;;;;;;;5.13;2.43;;;22.80;45.30;;;;;;4990735;28;20431;-72
2023/09/24 12:05:48;;;;;;;3.67;1.70;;;22.90;44.70;;;;;;4988313;28;20825;-73
2023/09/24 12:08:14;;;;;;;3.13;1.67;;;22.60;45.10;;;;;;4990463;28;20848;-73
2023/09/24 12:10:42;;;;;;;2.17;1.43;;;22.20;46.10;;;;;;4991975;28;20421;-71
2023/09/24 12:13:10;;;;;;;4.40;1.93;;;22.00;46.90;;;;;;4991645;28;20192;-72
2023/09/24 12:15:36;;;;;;;3.80;1.77;;;21.80;47.50;;;;;;4987428;28;20469;-72
2023/09/24 12:18:04;;;;;;;4.80;1.73;;;21.60;48.70;;;;;;4989214;28;20473;-72
2023/09/24 12:20:42;;;;;;;3.37;1.50;;;21.60;49.50;;;;;;4988105;28;20425;-72
2023/09/24 12:23:09;;;;;;;4.23;1.60;;;21.70;49.30;;;;;;4986989;28;20447;-71
2023/09/24 12:25:36;;;;;;;2.93;1.70;;;21.60;49.10;;;;;;4988124;28;20842;-72
2023/09/24 12:28:08;;;;;;;3.70;1.73;;;21.60;49.90;;;;;;4984863;28;20438;-72
2023/09/24 12:30:35;;;;;;;6.87;2.07;;;21.80;49.70;;;;;;4982196;28;20431;-72
2023/09/24 12:33:00;;;;;;;2.57;1.70;;;21.80;49.40;;;;;;4987523;28;20578;-70
2023/09/24 12:35:26;;;;;;;4.10;1.90;;;21.40;49.80;;;;;;4978879;28;20463;-72
2023/09/24 12:37:54;;;;;;;3.37;1.80;;;21.00;50.50;;;;;;4984798;28;20303;-72
2023/09/24 12:40:22;;;;;;;5.57;1.90;;;20.60;51.80;;;;;;4985243;28;20186;-71
2023/09/24 12:42:48;;;;;;;2.43;1.80;;;20.60;52.20;;;;;;4992486;28;20489;-72
2023/09/24 12:45:15;;;;;;;5.30;1.83;;;20.60;51.60;;;;;;4985093;28;21011;-71
2023/09/24 12:47:41;;;;;;;4.90;1.67;;;20.40;51.70;;;;;;4994320;28;20433;-72
2023/09/24 12:50:09;;;;;;;3.53;1.67;;;20.70;51.20;;;;;;4990185;28;20411;-71
2023/09/24 12:52:39;;;;;;;3.53;1.63;;;21.20;50.10;;;;;;4988253;28;20212;-72